Flight Track Log - Related Links

Times and Time Zones

All times are in EDT time to prevent confusion due to time zone crossing. See the EJA831 flight status page for this flight to view local times or setup timezone preferences in your user account.

Time Position Orientation Groundspeed Altitude Reporting Facility
EDT Latitude Longitude Course Direction KTS MPH feet Rate Location/Type
Sat 08:42:00 AM 43.8300 -69.6194 240° Southwest  Level FlightAware
Sat 08:43:00 AM 43.7928 -69.7091 240° Southwest  Level FlightAware
Sat 08:44:00 AM 43.7555 -69.7987 240° Southwest  Level FlightAware
Sat 08:45:00 AM 43.7181 -69.8883 240° Southwest  Level FlightAware
Sat 08:46:00 AM 43.6806 -69.9777 240° Southwest  Level FlightAware
Sat 08:47:00 AM 43.6431 -70.0669 240° Southwest  Level FlightAware
Sat 08:48:00 AM 43.6055 -70.1561 240° Southwest  Level FlightAware
Sat 08:49:00 AM 43.5679 -70.2452 240° Southwest  Level FlightAware
Sat 08:50:00 AM 43.5301 -70.3341 240° Southwest  Level FlightAware
Sat 08:50:49 AM 43.3167 -70.2667 206° Southwest 296 341 10,000  Level KA90
Sat 08:51:00 AM 43.4923 -70.4230 240° Southwest  Level FlightAware
Sat 08:51:25 AM 43.2833 -70.3167 228° Southwest 295 339 10,000  Level KA90
Sat 08:52:00 AM 43.4545 -70.5117 240° Southwest  Level FlightAware
Sat 08:52:25 AM 43.2333 -70.4000 231° Southwest 295 339 10,000  Level KA90
Sat 08:53:00 AM 43.4164 -70.6002 207° Southwest  Level FlightAware
Sat 08:53:25 AM 43.1667 -70.4667 216° Southwest 296 341 10,000  Level KA90
Sat 08:54:00 AM 43.3502 -70.6476 207° Southwest  Level FlightAware
Sat 08:54:25 AM 43.1167 -70.5500 231° Southwest 296 341 10,000  Level KA90
Sat 08:55:00 AM 43.2853 -70.6980 216° Southwest  Level FlightAware
Sat 08:55:25 AM 43.0667 -70.6333 231° Southwest 294 338 10,000  Level KA90
Sat 08:56:00 AM 43.2202 -70.7477 206° Southwest  Level FlightAware
Sat 08:56:25 AM 43.0167 -70.7000 224° Southwest 251 289 8,700  Level KA90
Sat 08:57:25 AM 42.9667 -70.7667 224° Southwest 245 282 7,100 -1,587 Descending KA90
Sat 08:58:26 AM 42.9167 -70.8500 231° Southwest 247 284 5,500 -1,587 Descending KA90
Sat 08:59:26 AM 42.8667 -70.9167 224° Southwest 243 280 3,900 -1,250 Descending KA90
Sat 09:00:26 AM 42.8167 -70.9667 216° Southwest 219 252 3,000 -450 Descending KA90
Sat 09:01:26 AM 42.7667 -70.9500 166° South 217 250 3,000 -450 Level KA90
Sat 09:02:26 AM 42.7000 -70.9500 180° South 214 246 2,100 -500 Descending KA90
Sat 09:03:26 AM 42.6500 -70.9333 166° South 207 238 2,000 -50 Descending KA90
Sat 09:04:26 AM 42.6167 -70.8667 124° Southeast 212 244 2,000 -250 Level KA90
Sat 09:05:26 AM 42.5833 -70.8333 144° Southeast 148 170 1,500 -500 Descending KA90
Sat 09:06:26 AM 42.5667 -70.8500 216° Southwest 104 120 1,000 -550 Descending KA90
Sat 09:07:26 AM 42.5667 -70.9000 270° West 109 125 400 -600 Descending KA90
Sat 09:09:00 AM 42.5833 -70.9000 270° West  Level FlightAware
Sat 09:16:00 AM 42.5841 -70.9161 270° West  Level Estimated

Login

Don't have an account? Register now (free) for customized features, flight alerts, and more!